sensor_id;sensor_type;location;lat;lon;timestamp;temperature;humidity
20815;DHT22;10568;48.176;16.316;2022-08-21T00:02:25;18.10;99.90
20815;DHT22;10568;48.176;16.316;2022-08-21T00:04:52;18.10;99.90
20815;DHT22;10568;48.176;16.316;2022-08-21T00:07:19;18.10;99.90
20815;DHT22;10568;48.176;16.316;2022-08-21T00:09:45;18.10;99.90
20815;DHT22;10568;48.176;16.316;2022-08-21T00:12:11;18.10;99.90
20815;DHT22;10568;48.176;16.316;2022-08-21T00:14:37;18.00;99.90
20815;DHT22;10568;48.176;16.316;2022-08-21T00:17:04;18.10;99.90
20815;DHT22;10568;48.176;16.316;2022-08-21T00:19:31;18.10;99.90
20815;DHT22;10568;48.176;16.316;2022-08-21T00:21:56;18.10;99.90
20815;DHT22;10568;48.176;16.316;2022-08-21T00:27:42;18.00;99.90
20815;DHT22;10568;48.176;16.316;2022-08-21T00:30:09;18.00;99.90
20815;DHT22;10568;48.176;16.316;2022-08-21T00:32:38;18.00;99.90
20815;DHT22;10568;48.176;16.316;2022-08-21T00:35:07;18.00;99.90
20815;DHT22;10568;48.176;16.316;2022-08-21T00:37:33;18.00;99.90
20815;DHT22;10568;48.176;16.316;2022-08-21T00:39:59;17.90;99.90
20815;DHT22;10568;48.176;16.316;2022-08-21T00:42:26;17.90;99.90
20815;DHT22;10568;48.176;16.316;2022-08-21T00:44:53;17.90;99.90
20815;DHT22;10568;48.176;16.316;2022-08-21T00:47:19;17.90;99.90
20815;DHT22;10568;48.176;16.316;2022-08-21T00:49:45;17.80;99.90
20815;DHT22;10568;48.176;16.316;2022-08-21T00:52:23;17.90;99.90
20815;DHT22;10568;48.176;16.316;2022-08-21T00:54:50;17.90;99.90
20815;DHT22;10568;48.176;16.316;2022-08-21T00:57:26;17.80;99.90
20815;DHT22;10568;48.176;16.316;2022-08-21T00:59:55;17.80;99.90
20815;DHT22;10568;48.176;16.316;2022-08-21T01:02:22;17.90;99.90
20815;DHT22;10568;48.176;16.316;2022-08-21T01:04:48;17.90;99.90
20815;DHT22;10568;48.176;16.316;2022-08-21T01:07:15;17.90;99.90
20815;DHT22;10568;48.176;16.316;2022-08-21T01:09:42;17.90;99.90
20815;DHT22;10568;48.176;16.316;2022-08-21T01:12:09;17.90;99.90
20815;DHT22;10568;48.176;16.316;2022-08-21T01:14:35;17.90;99.90
20815;DHT22;10568;48.176;16.316;2022-08-21T01:17:02;17.90;99.90
20815;DHT22;10568;48.176;16.316;2022-08-21T01:19:29;18.00;99.90
20815;DHT22;10568;48.176;16.316;2022-08-21T01:21:55;18.00;99.90
20815;DHT22;10568;48.176;16.316;2022-08-21T01:24:21;18.10;99.90
20815;DHT22;10568;48.176;16.316;2022-08-21T01:26:48;18.10;99.90
20815;DHT22;10568;48.176;16.316;2022-08-21T01:31:45;18.20;99.90
20815;DHT22;10568;48.176;16.316;2022-08-21T01:34:12;18.20;99.90
20815;DHT22;10568;48.176;16.316;2022-08-21T01:36:38;18.20;99.90
20815;DHT22;10568;48.176;16.316;2022-08-21T01:39:04;18.20;99.90
20815;DHT22;10568;48.176;16.316;2022-08-21T01:41:30;18.20;99.90
20815;DHT22;10568;48.176;16.316;2022-08-21T01:43:56;18.20;99.90
20815;DHT22;10568;48.176;16.316;2022-08-21T01:46:22;18.20;99.90
20815;DHT22;10568;48.176;16.316;2022-08-21T01:48:47;18.20;99.90
20815;DHT22;10568;48.176;16.316;2022-08-21T01:51:13;18.20;99.90
20815;DHT22;10568;48.176;16.316;2022-08-21T01:53:39;18.10;99.90
20815;DHT22;10568;48.176;16.316;2022-08-21T01:56:12;18.00;99.90
20815;DHT22;10568;48.176;16.316;2022-08-21T01:58:39;18.00;99.90
20815;DHT22;10568;48.176;16.316;2022-08-21T02:01:05;17.90;99.90
20815;DHT22;10568;48.176;16.316;2022-08-21T02:03:31;17.80;99.90
20815;DHT22;10568;48.176;16.316;2022-08-21T02:05:56;17.80;99.90
20815;DHT22;10568;48.176;16.316;2022-08-21T02:08:22;17.80;99.90
20815;DHT22;10568;48.176;16.316;2022-08-21T02:10:49;17.80;99.90
20815;DHT22;10568;48.176;16.316;2022-08-21T02:13:15;17.80;99.90
20815;DHT22;10568;48.176;16.316;2022-08-21T02:15:41;17.70;99.90
20815;DHT22;10568;48.176;16.316;2022-08-21T02:18:08;17.70;99.90
20815;DHT22;10568;48.176;16.316;2022-08-21T02:21:10;17.70;99.90
20815;DHT22;10568;48.176;16.316;2022-08-21T02:23:36;17.70;99.90
20815;DHT22;10568;48.176;16.316;2022-08-21T02:26:04;17.70;99.90
20815;DHT22;10568;48.176;16.316;2022-08-21T02:28:32;17.60;99.90
20815;DHT22;10568;48.176;16.316;2022-08-21T02:30:58;17.60;99.90
20815;DHT22;10568;48.176;16.316;2022-08-21T02:33:25;17.60;99.90
20815;DHT22;10568;48.176;16.316;2022-08-21T02:35:51;17.60;99.90
20815;DHT22;10568;48.176;16.316;2022-08-21T02:38:21;17.50;99.90
20815;DHT22;10568;48.176;16.316;2022-08-21T02:44:09;17.40;99.90
20815;DHT22;10568;48.176;16.316;2022-08-21T02:46:35;17.50;99.90
20815;DHT22;10568;48.176;16.316;2022-08-21T02:49:00;17.40;99.90
20815;DHT22;10568;48.176;16.316;2022-08-21T02:51:26;17.40;99.90
20815;DHT22;10568;48.176;16.316;2022-08-21T02:53:52;17.40;99.90
20815;DHT22;10568;48.176;16.316;2022-08-21T02:56:20;17.40;99.90
20815;DHT22;10568;48.176;16.316;2022-08-21T02:58:49;17.40;99.90
20815;DHT22;10568;48.176;16.316;2022-08-21T03:01:16;17.40;99.90
20815;DHT22;10568;48.176;16.316;2022-08-21T03:03:44;17.40;99.90
20815;DHT22;10568;48.176;16.316;2022-08-21T03:06:13;17.40;99.90
20815;DHT22;10568;48.176;16.316;2022-08-21T03:08:39;17.50;99.90
20815;DHT22;10568;48.176;16.316;2022-08-21T03:11:05;17.50;99.90
20815;DHT22;10568;48.176;16.316;2022-08-21T03:13:31;17.50;99.90
20815;DHT22;10568;48.176;16.316;2022-08-21T03:15:58;17.60;99.90
20815;DHT22;10568;48.176;16.316;2022-08-21T03:18:23;17.50;99.90
20815;DHT22;10568;48.176;16.316;2022-08-21T03:21:01;17.60;99.90
20815;DHT22;10568;48.176;16.316;2022-08-21T03:23:27;17.60;99.90
20815;DHT22;10568;48.176;16.316;2022-08-21T03:25:52;17.60;99.90
20815;DHT22;10568;48.176;16.316;2022-08-21T03:28:20;17.60;99.90
20815;DHT22;10568;48.176;16.316;2022-08-21T03:30:48;17.60;99.90
20815;DHT22;10568;48.176;16.316;2022-08-21T03:33:15;17.70;99.90
20815;DHT22;10568;48.176;16.316;2022-08-21T03:35:47;17.70;99.90
20815;DHT22;10568;48.176;16.316;2022-08-21T03:38:14;17.60;99.90
20815;DHT22;10568;48.176;16.316;2022-08-21T03:40:41;17.60;99.90
20815;DHT22;10568;48.176;16.316;2022-08-21T03:43:07;17.60;99.90
20815;DHT22;10568;48.176;16.316;2022-08-21T03:45:35;17.60;99.90
20815;DHT22;10568;48.176;16.316;2022-08-21T03:48:03;17.60;99.90
20815;DHT22;10568;48.176;16.316;2022-08-21T03:50:33;17.60;99.90
20815;DHT22;10568;48.176;16.316;2022-08-21T03:52:59;17.60;99.90
20815;DHT22;10568;48.176;16.316;2022-08-21T03:55:25;17.60;99.90
20815;DHT22;10568;48.176;16.316;2022-08-21T03:57:51;17.50;99.90
20815;DHT22;10568;48.176;16.316;2022-08-21T04:00:18;17.60;99.90
20815;DHT22;10568;48.176;16.316;2022-08-21T04:02:44;17.50;99.90
20815;DHT22;10568;48.176;16.316;2022-08-21T04:05:12;17.50;99.90
20815;DHT22;10568;48.176;16.316;2022-08-21T04:07:47;17.50;99.90
20815;DHT22;10568;48.176;16.316;2022-08-21T04:10:13;17.50;99.90
20815;DHT22;10568;48.176;16.316;2022-08-21T04:12:39;17.50;99.90
20815;DHT22;10568;48.176;16.316;2022-08-21T04:15:04;17.50;99.90
20815;DHT22;10568;48.176;16.316;2022-08-21T04:17:30;17.50;99.90
20815;DHT22;10568;48.176;16.316;2022-08-21T04:19:56;17.50;99.90
20815;DHT22;10568;48.176;16.316;2022-08-21T04:22:21;17.50;99.90
20815;DHT22;10568;48.176;16.316;2022-08-21T04:24:47;17.50;99.90
20815;DHT22;10568;48.176;16.316;2022-08-21T04:27:13;17.50;99.90
20815;DHT22;10568;48.176;16.316;2022-08-21T04:29:39;17.50;99.90
20815;DHT22;10568;48.176;16.316;2022-08-21T04:32:04;17.50;99.90
20815;DHT22;10568;48.176;16.316;2022-08-21T04:34:30;17.50;99.90
20815;DHT22;10568;48.176;16.316;2022-08-21T04:36:56;17.60;99.90
20815;DHT22;10568;48.176;16.316;2022-08-21T04:39:21;17.50;99.90
20815;DHT22;10568;48.176;16.316;2022-08-21T04:41:47;17.60;99.90
20815;DHT22;10568;48.176;16.316;2022-08-21T04:44:13;17.60;99.90
20815;DHT22;10568;48.176;16.316;2022-08-21T04:46:38;17.60;99.90
20815;DHT22;10568;48.176;16.316;2022-08-21T04:49:04;17.60;99.90
20815;DHT22;10568;48.176;16.316;2022-08-21T04:51:52;17.60;99.90
20815;DHT22;10568;48.176;16.316;2022-08-21T04:54:20;17.60;99.90
20815;DHT22;10568;48.176;16.316;2022-08-21T04:56:51;17.60;99.90
20815;DHT22;10568;48.176;16.316;2022-08-21T04:59:23;17.70;99.90
20815;DHT22;10568;48.176;16.316;2022-08-21T05:01:50;17.70;99.90
20815;DHT22;10568;48.176;16.316;2022-08-21T05:04:20;17.70;99.90
20815;DHT22;10568;48.176;16.316;2022-08-21T05:06:48;17.80;99.90
20815;DHT22;10568;48.176;16.316;2022-08-21T05:09:36;17.80;99.90
20815;DHT22;10568;48.176;16.316;2022-08-21T05:12:02;17.80;99.90
20815;DHT22;10568;48.176;16.316;2022-08-21T05:14:28;17.80;99.90
20815;DHT22;10568;48.176;16.316;2022-08-21T05:16:54;17.80;99.90
20815;DHT22;10568;48.176;16.316;2022-08-21T05:19:20;17.90;99.90
20815;DHT22;10568;48.176;16.316;2022-08-21T05:21:46;17.90;99.90
20815;DHT22;10568;48.176;16.316;2022-08-21T05:24:15;18.00;99.90
20815;DHT22;10568;48.176;16.316;2022-08-21T05:26:41;18.10;99.90
20815;DHT22;10568;48.176;16.316;2022-08-21T05:29:07;18.10;99.90
20815;DHT22;10568;48.176;16.316;2022-08-21T05:31:33;18.10;99.90
20815;DHT22;10568;48.176;16.316;2022-08-21T05:33:59;18.20;99.90
20815;DHT22;10568;48.176;16.316;2022-08-21T05:36:25;18.20;99.90
20815;DHT22;10568;48.176;16.316;2022-08-21T05:38:51;18.20;99.90
20815;DHT22;10568;48.176;16.316;2022-08-21T05:41:16;18.30;99.90
20815;DHT22;10568;48.176;16.316;2022-08-21T05:43:42;18.30;99.90
20815;DHT22;10568;48.176;16.316;2022-08-21T05:46:08;18.30;99.90
20815;DHT22;10568;48.176;16.316;2022-08-21T05:48:35;18.40;99.90
20815;DHT22;10568;48.176;16.316;2022-08-21T05:51:14;18.50;99.90
20815;DHT22;10568;48.176;16.316;2022-08-21T05:53:41;18.50;99.90
20815;DHT22;10568;48.176;16.316;2022-08-21T05:56:07;18.60;99.90
20815;DHT22;10568;48.176;16.316;2022-08-21T05:58:34;18.60;99.90
20815;DHT22;10568;48.176;16.316;2022-08-21T06:01:00;18.60;99.90
20815;DHT22;10568;48.176;16.316;2022-08-21T06:03:30;18.60;99.90
20815;DHT22;10568;48.176;16.316;2022-08-21T06:05:56;18.70;99.90
20815;DHT22;10568;48.176;16.316;2022-08-21T06:08:22;18.70;99.90
20815;DHT22;10568;48.176;16.316;2022-08-21T06:10:49;18.70;99.90
20815;DHT22;10568;48.176;16.316;2022-08-21T06:13:17;18.80;99.90
20815;DHT22;10568;48.176;16.316;2022-08-21T06:15:43;18.90;99.90
20815;DHT22;10568;48.176;16.316;2022-08-21T06:18:09;18.90;99.90
20815;DHT22;10568;48.176;16.316;2022-08-21T06:20:35;19.00;99.90
20815;DHT22;10568;48.176;16.316;2022-08-21T06:23:01;18.90;99.90
20815;DHT22;10568;48.176;16.316;2022-08-21T06:25:27;19.00;99.90
20815;DHT22;10568;48.176;16.316;2022-08-21T06:27:53;19.00;99.90
20815;DHT22;10568;48.176;16.316;2022-08-21T06:30:25;19.00;99.90
20815;DHT22;10568;48.176;16.316;2022-08-21T06:32:50;19.00;99.90
20815;DHT22;10568;48.176;16.316;2022-08-21T06:35:16;19.00;99.90
20815;DHT22;10568;48.176;16.316;2022-08-21T06:37:42;19.10;99.90
20815;DHT22;10568;48.176;16.316;2022-08-21T06:40:08;19.10;99.90
20815;DHT22;10568;48.176;16.316;2022-08-21T06:42:34;19.10;99.90
20815;DHT22;10568;48.176;16.316;2022-08-21T06:44:59;19.10;99.90
20815;DHT22;10568;48.176;16.316;2022-08-21T06:47:25;19.20;99.90
20815;DHT22;10568;48.176;16.316;2022-08-21T06:49:51;19.20;99.90
20815;DHT22;10568;48.176;16.316;2022-08-21T06:52:17;19.20;99.90
20815;DHT22;10568;48.176;16.316;2022-08-21T06:54:42;19.10;99.90
20815;DHT22;10568;48.176;16.316;2022-08-21T06:57:08;19.30;99.90
20815;DHT22;10568;48.176;16.316;2022-08-21T06:59:34;19.20;99.90
20815;DHT22;10568;48.176;16.316;2022-08-21T07:02:00;19.20;99.90
20815;DHT22;10568;48.176;16.316;2022-08-21T07:04:26;19.20;99.90
20815;DHT22;10568;48.176;16.316;2022-08-21T07:06:52;19.20;99.90
20815;DHT22;10568;48.176;16.316;2022-08-21T07:09:18;19.20;99.90
20815;DHT22;10568;48.176;16.316;2022-08-21T07:11:46;19.20;99.90
20815;DHT22;10568;48.176;16.316;2022-08-21T07:14:14;19.30;99.90
20815;DHT22;10568;48.176;16.316;2022-08-21T07:16:39;19.30;99.90
20815;DHT22;10568;48.176;16.316;2022-08-21T07:19:05;19.30;99.90
20815;DHT22;10568;48.176;16.316;2022-08-21T07:21:30;19.20;99.90
20815;DHT22;10568;48.176;16.316;2022-08-21T07:23:56;19.30;99.90
20815;DHT22;10568;48.176;16.316;2022-08-21T07:26:23;19.30;99.90
20815;DHT22;10568;48.176;16.316;2022-08-21T07:28:49;19.30;99.90
20815;DHT22;10568;48.176;16.316;2022-08-21T07:31:18;19.30;99.90
20815;DHT22;10568;48.176;16.316;2022-08-21T07:33:44;19.30;99.90
20815;DHT22;10568;48.176;16.316;2022-08-21T07:36:11;19.30;99.90
20815;DHT22;10568;48.176;16.316;2022-08-21T07:38:37;19.30;99.90
20815;DHT22;10568;48.176;16.316;2022-08-21T07:41:18;19.30;99.90
20815;DHT22;10568;48.176;16.316;2022-08-21T07:43:44;19.30;99.90
20815;DHT22;10568;48.176;16.316;2022-08-21T07:46:10;19.40;99.90
20815;DHT22;10568;48.176;16.316;2022-08-21T07:48:36;19.50;99.90
20815;DHT22;10568;48.176;16.316;2022-08-21T07:51:07;19.50;99.90
20815;DHT22;10568;48.176;16.316;2022-08-21T07:53:35;19.60;99.90
20815;DHT22;10568;48.176;16.316;2022-08-21T07:56:01;19.40;99.90
20815;DHT22;10568;48.176;16.316;2022-08-21T07:58:27;19.40;99.90
20815;DHT22;10568;48.176;16.316;2022-08-21T08:00:53;19.20;99.90
20815;DHT22;10568;48.176;16.316;2022-08-21T08:03:18;19.30;99.90
20815;DHT22;10568;48.176;16.316;2022-08-21T08:05:44;19.20;99.90
20815;DHT22;10568;48.176;16.316;2022-08-21T08:08:10;19.10;99.90
20815;DHT22;10568;48.176;16.316;2022-08-21T08:10:37;19.10;99.90
20815;DHT22;10568;48.176;16.316;2022-08-21T08:13:03;19.10;99.90
20815;DHT22;10568;48.176;16.316;2022-08-21T08:15:29;19.20;99.90
20815;DHT22;10568;48.176;16.316;2022-08-21T08:17:55;19.30;99.90
20815;DHT22;10568;48.176;16.316;2022-08-21T08:20:23;19.30;99.90
20815;DHT22;10568;48.176;16.316;2022-08-21T08:22:51;19.50;99.90
20815;DHT22;10568;48.176;16.316;2022-08-21T08:25:17;19.60;99.90
20815;DHT22;10568;48.176;16.316;2022-08-21T08:27:43;19.70;99.90
20815;DHT22;10568;48.176;16.316;2022-08-21T08:30:11;19.70;99.90
20815;DHT22;10568;48.176;16.316;2022-08-21T08:32:37;19.70;99.90
20815;DHT22;10568;48.176;16.316;2022-08-21T08:35:04;19.70;99.90
20815;DHT22;10568;48.176;16.316;2022-08-21T08:37:30;19.70;99.90
20815;DHT22;10568;48.176;16.316;2022-08-21T08:39:56;19.70;99.90
20815;DHT22;10568;48.176;16.316;2022-08-21T08:42:33;19.80;99.90
20815;DHT22;10568;48.176;16.316;2022-08-21T08:47:31;19.70;99.90
20815;DHT22;10568;48.176;16.316;2022-08-21T08:50:07;19.60;99.90
20815;DHT22;10568;48.176;16.316;2022-08-21T08:52:45;19.60;99.90
20815;DHT22;10568;48.176;16.316;2022-08-21T08:55:37;19.60;99.90
20815;DHT22;10568;48.176;16.316;2022-08-21T08:58:02;19.60;99.90
20815;DHT22;10568;48.176;16.316;2022-08-21T09:00:28;19.60;99.90
20815;DHT22;10568;48.176;16.316;2022-08-21T09:02:59;19.70;99.90
20815;DHT22;10568;48.176;16.316;2022-08-21T09:05:43;19.80;99.90
20815;DHT22;10568;48.176;16.316;2022-08-21T09:08:41;19.90;99.90
20815;DHT22;10568;48.176;16.316;2022-08-21T09:11:34;20.00;99.90
20815;DHT22;10568;48.176;16.316;2022-08-21T09:14:17;20.10;99.90
20815;DHT22;10568;48.176;16.316;2022-08-21T09:17:02;20.20;99.90
20815;DHT22;10568;48.176;16.316;2022-08-21T09:22:37;20.30;99.90
20815;DHT22;10568;48.176;16.316;2022-08-21T09:25:11;20.30;99.90
20815;DHT22;10568;48.176;16.316;2022-08-21T09:27:38;20.00;99.90
20815;DHT22;10568;48.176;16.316;2022-08-21T09:30:08;20.00;99.90
20815;DHT22;10568;48.176;16.316;2022-08-21T09:32:36;20.20;99.90
20815;DHT22;10568;48.176;16.316;2022-08-21T09:35:09;20.20;99.90
20815;DHT22;10568;48.176;16.316;2022-08-21T09:40:40;20.20;99.90
20815;DHT22;10568;48.176;16.316;2022-08-21T09:43:21;20.40;99.90
20815;DHT22;10568;48.176;16.316;2022-08-21T09:45:49;20.50;99.90
20815;DHT22;10568;48.176;16.316;2022-08-21T09:48:25;20.30;99.90
20815;DHT22;10568;48.176;16.316;2022-08-21T09:50:53;20.50;99.90
20815;DHT22;10568;48.176;16.316;2022-08-21T09:53:20;20.50;99.90
20815;DHT22;10568;48.176;16.316;2022-08-21T09:56:14;20.20;99.90
20815;DHT22;10568;48.176;16.316;2022-08-21T09:58:59;20.00;99.90
20815;DHT22;10568;48.176;16.316;2022-08-21T10:01:26;19.90;99.90
20815;DHT22;10568;48.176;16.316;2022-08-21T10:04:13;19.70;99.90
20815;DHT22;10568;48.176;16.316;2022-08-21T10:06:39;19.70;99.90
20815;DHT22;10568;48.176;16.316;2022-08-21T10:09:09;19.70;99.90
20815;DHT22;10568;48.176;16.316;2022-08-21T10:11:35;19.70;99.90
20815;DHT22;10568;48.176;16.316;2022-08-21T10:19:39;19.80;99.90
20815;DHT22;10568;48.176;16.316;2022-08-21T10:30:50;19.80;99.90
20815;DHT22;10568;48.176;16.316;2022-08-21T10:47:54;19.90;99.90
20815;DHT22;10568;48.176;16.316;2022-08-21T10:54:39;19.80;99.90
20815;DHT22;10568;48.176;16.316;2022-08-21T10:56:36;19.80;99.90
20815;DHT22;10568;48.176;16.316;2022-08-21T10:59:33;19.70;99.90
20815;DHT22;10568;48.176;16.316;2022-08-21T11:02:33;19.90;99.90
20815;DHT22;10568;48.176;16.316;2022-08-21T11:05:08;20.00;99.90
20815;DHT22;10568;48.176;16.316;2022-08-21T11:07:48;20.10;99.90
20815;DHT22;10568;48.176;16.316;2022-08-21T11:10:28;20.00;99.90
20815;DHT22;10568;48.176;16.316;2022-08-21T11:13:22;20.00;99.90
20815;DHT22;10568;48.176;16.316;2022-08-21T11:15:59;20.10;99.90
20815;DHT22;10568;48.176;16.316;2022-08-21T11:18:38;20.50;99.90
20815;DHT22;10568;48.176;16.316;2022-08-21T11:24:19;21.00;99.90
20815;DHT22;10568;48.176;16.316;2022-08-21T11:29:29;21.70;99.90
20815;DHT22;10568;48.176;16.316;2022-08-21T11:40:44;22.00;99.90
20815;DHT22;10568;48.176;16.316;2022-08-21T11:43:42;21.70;99.90
20815;DHT22;10568;48.176;16.316;2022-08-21T11:47:12;21.50;99.90
20815;DHT22;10568;48.176;16.316;2022-08-21T11:52:16;21.30;99.90
20815;DHT22;10568;48.176;16.316;2022-08-21T11:54:52;21.20;99.90
20815;DHT22;10568;48.176;16.316;2022-08-21T12:00:11;21.20;99.90
20815;DHT22;10568;48.176;16.316;2022-08-21T12:02:42;21.00;99.90
20815;DHT22;10568;48.176;16.316;2022-08-21T12:05:22;21.00;99.90
20815;DHT22;10568;48.176;16.316;2022-08-21T12:08:01;21.00;99.90
20815;DHT22;10568;48.176;16.316;2022-08-21T12:10:37;21.00;99.90
20815;DHT22;10568;48.176;16.316;2022-08-21T12:13:26;21.10;99.90
20815;DHT22;10568;48.176;16.316;2022-08-21T12:15:52;20.80;99.90
20815;DHT22;10568;48.176;16.316;2022-08-21T12:18:29;20.80;99.90
20815;DHT22;10568;48.176;16.316;2022-08-21T12:21:01;20.80;99.90
20815;DHT22;10568;48.176;16.316;2022-08-21T12:23:46;20.70;99.90
20815;DHT22;10568;48.176;16.316;2022-08-21T12:26:28;20.50;99.90
20815;DHT22;10568;48.176;16.316;2022-08-21T12:29:16;20.40;99.90
20815;DHT22;10568;48.176;16.316;2022-08-21T12:34:42;20.10;99.90
20815;DHT22;10568;48.176;16.316;2022-08-21T12:39:55;19.90;99.90
20815;DHT22;10568;48.176;16.316;2022-08-21T12:42:33;19.90;99.90
20815;DHT22;10568;48.176;16.316;2022-08-21T12:45:11;19.70;99.90
20815;DHT22;10568;48.176;16.316;2022-08-21T12:50:19;19.80;99.90
20815;DHT22;10568;48.176;16.316;2022-08-21T12:52:55;19.60;99.90
20815;DHT22;10568;48.176;16.316;2022-08-21T12:55:32;19.60;99.90
20815;DHT22;10568;48.176;16.316;2022-08-21T12:57:59;19.60;99.90
20815;DHT22;10568;48.176;16.316;2022-08-21T13:00:28;19.60;99.90
20815;DHT22;10568;48.176;16.316;2022-08-21T13:03:29;19.70;99.90
20815;DHT22;10568;48.176;16.316;2022-08-21T13:05:55;19.60;99.90
20815;DHT22;10568;48.176;16.316;2022-08-21T13:08:22;19.60;99.90
20815;DHT22;10568;48.176;16.316;2022-08-21T13:11:00;19.60;99.90
20815;DHT22;10568;48.176;16.316;2022-08-21T13:13:27;19.60;99.90
20815;DHT22;10568;48.176;16.316;2022-08-21T13:16:04;19.60;99.90
20815;DHT22;10568;48.176;16.316;2022-08-21T13:18:33;19.60;99.90
20815;DHT22;10568;48.176;16.316;2022-08-21T13:21:05;19.60;99.90
20815;DHT22;10568;48.176;16.316;2022-08-21T13:23:31;19.50;99.90
20815;DHT22;10568;48.176;16.316;2022-08-21T13:25:57;19.50;99.90
20815;DHT22;10568;48.176;16.316;2022-08-21T13:28:25;19.60;99.90
20815;DHT22;10568;48.176;16.316;2022-08-21T13:30:58;19.60;99.90
20815;DHT22;10568;48.176;16.316;2022-08-21T13:33:29;19.60;99.90
20815;DHT22;10568;48.176;16.316;2022-08-21T13:38:28;19.50;99.90
20815;DHT22;10568;48.176;16.316;2022-08-21T13:43:27;19.50;99.90
20815;DHT22;10568;48.176;16.316;2022-08-21T13:45:55;19.60;99.90
20815;DHT22;10568;48.176;16.316;2022-08-21T13:48:24;19.50;99.90
20815;DHT22;10568;48.176;16.316;2022-08-21T13:50:52;19.60;99.90
20815;DHT22;10568;48.176;16.316;2022-08-21T13:55:53;19.60;99.90
20815;DHT22;10568;48.176;16.316;2022-08-21T14:00:51;19.70;99.90
20815;DHT22;10568;48.176;16.316;2022-08-21T14:03:45;19.70;99.90
20815;DHT22;10568;48.176;16.316;2022-08-21T14:06:22;19.70;99.90
20815;DHT22;10568;48.176;16.316;2022-08-21T14:08:57;19.80;99.90
20815;DHT22;10568;48.176;16.316;2022-08-21T14:11:24;19.90;99.90
20815;DHT22;10568;48.176;16.316;2022-08-21T14:13:57;19.90;99.90
20815;DHT22;10568;48.176;16.316;2022-08-21T14:19:46;20.00;99.90
20815;DHT22;10568;48.176;16.316;2022-08-21T14:22:47;20.10;99.90
20815;DHT22;10568;48.176;16.316;2022-08-21T14:26:00;20.00;99.90
20815;DHT22;10568;48.176;16.316;2022-08-21T14:28:28;20.00;99.90
20815;DHT22;10568;48.176;16.316;2022-08-21T14:30:55;20.10;99.90
20815;DHT22;10568;48.176;16.316;2022-08-21T14:33:31;20.10;99.90
20815;DHT22;10568;48.176;16.316;2022-08-21T14:35:58;20.00;99.90
20815;DHT22;10568;48.176;16.316;2022-08-21T14:38:25;20.00;99.90
20815;DHT22;10568;48.176;16.316;2022-08-21T14:40:56;20.00;99.90
20815;DHT22;10568;48.176;16.316;2022-08-21T14:43:26;20.10;99.90
20815;DHT22;10568;48.176;16.316;2022-08-21T14:45:54;20.10;99.90
20815;DHT22;10568;48.176;16.316;2022-08-21T14:48:20;20.10;99.90
20815;DHT22;10568;48.176;16.316;2022-08-21T14:50:46;20.10;99.90
20815;DHT22;10568;48.176;16.316;2022-08-21T14:53:14;20.10;99.90
20815;DHT22;10568;48.176;16.316;2022-08-21T14:55:41;20.00;99.90
20815;DHT22;10568;48.176;16.316;2022-08-21T14:58:25;20.10;99.90
20815;DHT22;10568;48.176;16.316;2022-08-21T15:00:51;20.00;99.90
20815;DHT22;10568;48.176;16.316;2022-08-21T15:03:19;20.00;99.90
20815;DHT22;10568;48.176;16.316;2022-08-21T15:05:47;20.00;99.90
20815;DHT22;10568;48.176;16.316;2022-08-21T15:08:14;20.00;99.90
20815;DHT22;10568;48.176;16.316;2022-08-21T15:10:41;19.90;99.90
20815;DHT22;10568;48.176;16.316;2022-08-21T15:13:08;20.00;99.90
20815;DHT22;10568;48.176;16.316;2022-08-21T15:15:40;19.90;99.90
20815;DHT22;10568;48.176;16.316;2022-08-21T15:18:08;20.00;99.90
20815;DHT22;10568;48.176;16.316;2022-08-21T15:20:34;20.00;99.90
20815;DHT22;10568;48.176;16.316;2022-08-21T15:23:00;20.00;99.90
20815;DHT22;10568;48.176;16.316;2022-08-21T15:25:26;20.00;99.90
20815;DHT22;10568;48.176;16.316;2022-08-21T15:27:52;20.00;99.90
20815;DHT22;10568;48.176;16.316;2022-08-21T15:30:18;20.00;99.90
20815;DHT22;10568;48.176;16.316;2022-08-21T15:32:43;19.90;99.90
20815;DHT22;10568;48.176;16.316;2022-08-21T15:35:10;19.90;99.90
20815;DHT22;10568;48.176;16.316;2022-08-21T15:37:36;19.90;99.90
20815;DHT22;10568;48.176;16.316;2022-08-21T15:40:03;19.90;99.90
20815;DHT22;10568;48.176;16.316;2022-08-21T15:42:30;19.90;99.90
20815;DHT22;10568;48.176;16.316;2022-08-21T15:44:57;19.90;99.90
20815;DHT22;10568;48.176;16.316;2022-08-21T15:47:35;19.90;99.90
20815;DHT22;10568;48.176;16.316;2022-08-21T15:50:03;19.90;99.90
20815;DHT22;10568;48.176;16.316;2022-08-21T15:52:29;19.90;99.90
20815;DHT22;10568;48.176;16.316;2022-08-21T15:54:55;19.90;99.90
20815;DHT22;10568;48.176;16.316;2022-08-21T15:57:23;19.80;99.90
20815;DHT22;10568;48.176;16.316;2022-08-21T15:59:53;19.80;99.90
20815;DHT22;10568;48.176;16.316;2022-08-21T16:02:25;19.80;99.90
20815;DHT22;10568;48.176;16.316;2022-08-21T16:04:52;19.70;99.90
20815;DHT22;10568;48.176;16.316;2022-08-21T16:07:19;19.70;99.90
20815;DHT22;10568;48.176;16.316;2022-08-21T16:09:44;19.60;99.90
20815;DHT22;10568;48.176;16.316;2022-08-21T16:12:24;19.50;99.90
20815;DHT22;10568;48.176;16.316;2022-08-21T16:14:52;19.50;99.90
20815;DHT22;10568;48.176;16.316;2022-08-21T16:17:21;19.50;99.90
20815;DHT22;10568;48.176;16.316;2022-08-21T16:19:47;19.40;99.90
20815;DHT22;10568;48.176;16.316;2022-08-21T16:22:13;19.40;99.90
20815;DHT22;10568;48.176;16.316;2022-08-21T16:24:39;19.40;99.90
20815;DHT22;10568;48.176;16.316;2022-08-21T16:27:05;19.30;99.90
20815;DHT22;10568;48.176;16.316;2022-08-21T16:29:34;19.30;99.90
20815;DHT22;10568;48.176;16.316;2022-08-21T16:32:00;19.30;99.90
20815;DHT22;10568;48.176;16.316;2022-08-21T16:34:26;19.30;99.90
20815;DHT22;10568;48.176;16.316;2022-08-21T16:36:53;19.20;99.90
20815;DHT22;10568;48.176;16.316;2022-08-21T16:39:19;19.20;99.90
20815;DHT22;10568;48.176;16.316;2022-08-21T16:41:45;19.20;99.90
20815;DHT22;10568;48.176;16.316;2022-08-21T16:44:13;19.20;99.90
20815;DHT22;10568;48.176;16.316;2022-08-21T16:46:40;19.10;99.90
20815;DHT22;10568;48.176;16.316;2022-08-21T16:49:06;19.10;99.90
20815;DHT22;10568;48.176;16.316;2022-08-21T16:51:32;19.20;99.90
20815;DHT22;10568;48.176;16.316;2022-08-21T16:53:59;19.10;99.90
20815;DHT22;10568;48.176;16.316;2022-08-21T16:56:25;19.10;99.90
20815;DHT22;10568;48.176;16.316;2022-08-21T16:58:53;19.10;99.90
20815;DHT22;10568;48.176;16.316;2022-08-21T17:01:24;19.10;99.90
20815;DHT22;10568;48.176;16.316;2022-08-21T17:03:51;19.20;99.90